sensor_id;sensor_type;location;lat;lon;timestamp;temperature;humidity
18321;DHT22;54904;54.350;18.664;2022-12-07T00:00:21;6.50;99.90
18321;DHT22;54904;54.350;18.664;2022-12-07T00:02:47;6.50;99.90
18321;DHT22;54904;54.350;18.664;2022-12-07T00:05:15;6.50;99.90
18321;DHT22;54904;54.350;18.664;2022-12-07T00:07:43;6.40;99.90
18321;DHT22;54904;54.350;18.664;2022-12-07T00:10:10;6.40;99.90
18321;DHT22;54904;54.350;18.664;2022-12-07T00:12:37;6.40;99.90
18321;DHT22;54904;54.350;18.664;2022-12-07T00:15:05;6.40;99.90
18321;DHT22;54904;54.350;18.664;2022-12-07T00:17:32;6.40;99.90
18321;DHT22;54904;54.350;18.664;2022-12-07T00:20:00;6.40;99.90
18321;DHT22;54904;54.350;18.664;2022-12-07T00:22:27;6.40;99.90
18321;DHT22;54904;54.350;18.664;2022-12-07T00:24:56;6.40;99.90
18321;DHT22;54904;54.350;18.664;2022-12-07T00:27:23;6.40;99.90
18321;DHT22;54904;54.350;18.664;2022-12-07T00:29:50;6.50;99.90
18321;DHT22;54904;54.350;18.664;2022-12-07T00:32:17;6.50;99.90
18321;DHT22;54904;54.350;18.664;2022-12-07T00:34:44;6.50;99.90
18321;DHT22;54904;54.350;18.664;2022-12-07T00:37:11;6.50;99.90
18321;DHT22;54904;54.350;18.664;2022-12-07T00:39:39;6.50;99.90
18321;DHT22;54904;54.350;18.664;2022-12-07T00:42:07;6.50;99.90
18321;DHT22;54904;54.350;18.664;2022-12-07T00:44:34;6.50;99.90
18321;DHT22;54904;54.350;18.664;2022-12-07T00:47:01;6.50;99.90
18321;DHT22;54904;54.350;18.664;2022-12-07T00:49:28;6.60;99.90
18321;DHT22;54904;54.350;18.664;2022-12-07T00:51:55;6.60;99.90
18321;DHT22;54904;54.350;18.664;2022-12-07T00:54:22;6.60;99.90
18321;DHT22;54904;54.350;18.664;2022-12-07T00:56:49;6.60;99.90
18321;DHT22;54904;54.350;18.664;2022-12-07T00:59:18;6.60;99.90
18321;DHT22;54904;54.350;18.664;2022-12-07T01:01:45;6.60;99.90
18321;DHT22;54904;54.350;18.664;2022-12-07T01:04:12;6.70;99.90
18321;DHT22;54904;54.350;18.664;2022-12-07T01:06:39;6.60;99.90
18321;DHT22;54904;54.350;18.664;2022-12-07T01:09:06;6.60;99.90
18321;DHT22;54904;54.350;18.664;2022-12-07T01:11:33;6.60;99.90
18321;DHT22;54904;54.350;18.664;2022-12-07T01:14:00;6.60;99.90
18321;DHT22;54904;54.350;18.664;2022-12-07T01:16:31;6.70;99.90
18321;DHT22;54904;54.350;18.664;2022-12-07T01:18:59;6.70;99.90
18321;DHT22;54904;54.350;18.664;2022-12-07T01:21:28;6.70;99.90
18321;DHT22;54904;54.350;18.664;2022-12-07T01:23:57;6.70;99.90
18321;DHT22;54904;54.350;18.664;2022-12-07T01:26:26;6.70;99.90
18321;DHT22;54904;54.350;18.664;2022-12-07T01:28:53;6.70;99.90
18321;DHT22;54904;54.350;18.664;2022-12-07T01:31:22;6.70;99.90
18321;DHT22;54904;54.350;18.664;2022-12-07T01:33:53;6.70;99.90
18321;DHT22;54904;54.350;18.664;2022-12-07T01:36:22;6.70;99.90
18321;DHT22;54904;54.350;18.664;2022-12-07T01:38:54;6.70;99.90
18321;DHT22;54904;54.350;18.664;2022-12-07T01:41:24;6.80;99.90
18321;DHT22;54904;54.350;18.664;2022-12-07T01:44:21;6.70;99.90
18321;DHT22;54904;54.350;18.664;2022-12-07T01:46:49;6.70;99.90
18321;DHT22;54904;54.350;18.664;2022-12-07T01:49:23;6.70;99.90
18321;DHT22;54904;54.350;18.664;2022-12-07T01:51:57;6.70;99.90
18321;DHT22;54904;54.350;18.664;2022-12-07T01:54:25;6.70;99.90
18321;DHT22;54904;54.350;18.664;2022-12-07T01:56:54;6.70;99.90
18321;DHT22;54904;54.350;18.664;2022-12-07T01:59:24;6.70;99.90
18321;DHT22;54904;54.350;18.664;2022-12-07T02:01:53;6.70;99.90
18321;DHT22;54904;54.350;18.664;2022-12-07T02:04:23;6.70;99.90
18321;DHT22;54904;54.350;18.664;2022-12-07T02:06:50;6.70;99.90
18321;DHT22;54904;54.350;18.664;2022-12-07T02:09:18;6.80;99.90
18321;DHT22;54904;54.350;18.664;2022-12-07T02:11:45;6.70;99.90
18321;DHT22;54904;54.350;18.664;2022-12-07T02:14:12;6.80;99.90
18321;DHT22;54904;54.350;18.664;2022-12-07T02:16:48;6.80;99.90
18321;DHT22;54904;54.350;18.664;2022-12-07T02:19:45;6.80;99.90
18321;DHT22;54904;54.350;18.664;2022-12-07T02:25:23;6.80;99.90
18321;DHT22;54904;54.350;18.664;2022-12-07T02:28:01;6.80;99.90
18321;DHT22;54904;54.350;18.664;2022-12-07T02:30:34;6.80;99.90
18321;DHT22;54904;54.350;18.664;2022-12-07T02:33:06;6.80;99.90
18321;DHT22;54904;54.350;18.664;2022-12-07T02:35:38;6.80;99.90
18321;DHT22;54904;54.350;18.664;2022-12-07T02:38:11;6.70;99.90
18321;DHT22;54904;54.350;18.664;2022-12-07T02:40:44;6.80;99.90
18321;DHT22;54904;54.350;18.664;2022-12-07T02:43:16;6.80;99.90
18321;DHT22;54904;54.350;18.664;2022-12-07T02:45:46;6.80;99.90
18321;DHT22;54904;54.350;18.664;2022-12-07T02:48:16;6.80;99.90
18321;DHT22;54904;54.350;18.664;2022-12-07T02:50:45;6.80;99.90
18321;DHT22;54904;54.350;18.664;2022-12-07T02:53:31;6.80;99.90
18321;DHT22;54904;54.350;18.664;2022-12-07T02:55:59;6.70;99.90
18321;DHT22;54904;54.350;18.664;2022-12-07T02:58:35;6.70;99.90
18321;DHT22;54904;54.350;18.664;2022-12-07T03:01:14;6.70;99.90
18321;DHT22;54904;54.350;18.664;2022-12-07T03:03:48;6.70;99.90
18321;DHT22;54904;54.350;18.664;2022-12-07T03:06:22;6.70;99.90
18321;DHT22;54904;54.350;18.664;2022-12-07T03:08:57;6.70;99.90
18321;DHT22;54904;54.350;18.664;2022-12-07T03:11:32;6.70;99.90
18321;DHT22;54904;54.350;18.664;2022-12-07T03:14:08;6.70;99.90
18321;DHT22;54904;54.350;18.664;2022-12-07T03:16:42;6.70;99.90
18321;DHT22;54904;54.350;18.664;2022-12-07T03:19:15;6.70;99.90
18321;DHT22;54904;54.350;18.664;2022-12-07T03:21:46;6.80;99.90
18321;DHT22;54904;54.350;18.664;2022-12-07T03:24:17;6.70;99.90
18321;DHT22;54904;54.350;18.664;2022-12-07T03:26:48;6.80;99.90
18321;DHT22;54904;54.350;18.664;2022-12-07T03:29:19;6.80;99.90
18321;DHT22;54904;54.350;18.664;2022-12-07T03:31:55;6.80;99.90
18321;DHT22;54904;54.350;18.664;2022-12-07T03:34:29;6.80;99.90
18321;DHT22;54904;54.350;18.664;2022-12-07T03:37:00;6.80;99.90
18321;DHT22;54904;54.350;18.664;2022-12-07T03:39:33;6.70;99.90
18321;DHT22;54904;54.350;18.664;2022-12-07T03:42:04;6.70;99.90
18321;DHT22;54904;54.350;18.664;2022-12-07T03:44:32;6.70;99.90
18321;DHT22;54904;54.350;18.664;2022-12-07T03:47:05;6.80;99.90
18321;DHT22;54904;54.350;18.664;2022-12-07T03:49:39;6.80;99.90
18321;DHT22;54904;54.350;18.664;2022-12-07T03:52:16;6.80;99.90
18321;DHT22;54904;54.350;18.664;2022-12-07T03:54:49;6.70;99.90
18321;DHT22;54904;54.350;18.664;2022-12-07T03:57:19;6.70;99.90
18321;DHT22;54904;54.350;18.664;2022-12-07T03:59:46;6.70;99.90
18321;DHT22;54904;54.350;18.664;2022-12-07T04:02:15;6.80;99.90
18321;DHT22;54904;54.350;18.664;2022-12-07T04:04:43;6.80;99.90
18321;DHT22;54904;54.350;18.664;2022-12-07T04:07:10;6.80;99.90
18321;DHT22;54904;54.350;18.664;2022-12-07T04:09:38;6.80;99.90
18321;DHT22;54904;54.350;18.664;2022-12-07T04:12:06;6.80;99.90
18321;DHT22;54904;54.350;18.664;2022-12-07T04:14:33;6.80;99.90
18321;DHT22;54904;54.350;18.664;2022-12-07T04:17:00;6.80;99.90
18321;DHT22;54904;54.350;18.664;2022-12-07T04:19:30;6.80;99.90
18321;DHT22;54904;54.350;18.664;2022-12-07T04:21:59;6.80;99.90
18321;DHT22;54904;54.350;18.664;2022-12-07T04:24:26;6.80;99.90
18321;DHT22;54904;54.350;18.664;2022-12-07T04:26:54;6.80;99.90
18321;DHT22;54904;54.350;18.664;2022-12-07T04:29:22;6.80;99.90
18321;DHT22;54904;54.350;18.664;2022-12-07T04:31:49;6.80;99.90
18321;DHT22;54904;54.350;18.664;2022-12-07T04:34:17;6.80;99.90
18321;DHT22;54904;54.350;18.664;2022-12-07T04:36:47;6.80;99.90
18321;DHT22;54904;54.350;18.664;2022-12-07T04:39:19;6.90;99.90
18321;DHT22;54904;54.350;18.664;2022-12-07T04:41:46;6.90;99.90
18321;DHT22;54904;54.350;18.664;2022-12-07T04:44:14;6.90;99.90
18321;DHT22;54904;54.350;18.664;2022-12-07T04:46:42;6.90;99.90
18321;DHT22;54904;54.350;18.664;2022-12-07T04:49:10;6.90;99.90
18321;DHT22;54904;54.350;18.664;2022-12-07T04:51:37;6.90;99.90
18321;DHT22;54904;54.350;18.664;2022-12-07T04:54:05;6.90;99.90
18321;DHT22;54904;54.350;18.664;2022-12-07T04:56:33;6.90;99.90
18321;DHT22;54904;54.350;18.664;2022-12-07T04:59:02;6.90;99.90
18321;DHT22;54904;54.350;18.664;2022-12-07T05:01:30;6.90;99.90
18321;DHT22;54904;54.350;18.664;2022-12-07T05:03:57;6.90;99.90
18321;DHT22;54904;54.350;18.664;2022-12-07T05:06:24;6.80;99.90
18321;DHT22;54904;54.350;18.664;2022-12-07T05:08:51;6.80;99.90
18321;DHT22;54904;54.350;18.664;2022-12-07T05:11:20;6.80;99.90
18321;DHT22;54904;54.350;18.664;2022-12-07T05:14:08;6.80;99.90
18321;DHT22;54904;54.350;18.664;2022-12-07T05:16:36;6.80;99.90
18321;DHT22;54904;54.350;18.664;2022-12-07T05:19:03;6.80;99.90
18321;DHT22;54904;54.350;18.664;2022-12-07T05:21:31;6.80;99.90
18321;DHT22;54904;54.350;18.664;2022-12-07T05:23:58;6.80;99.90
18321;DHT22;54904;54.350;18.664;2022-12-07T05:26:28;6.90;99.90
18321;DHT22;54904;54.350;18.664;2022-12-07T05:28:55;6.90;99.90
18321;DHT22;54904;54.350;18.664;2022-12-07T05:31:23;6.90;99.90
18321;DHT22;54904;54.350;18.664;2022-12-07T05:33:51;6.90;99.90
18321;DHT22;54904;54.350;18.664;2022-12-07T05:36:18;6.90;99.90
18321;DHT22;54904;54.350;18.664;2022-12-07T05:38:45;6.90;99.90
18321;DHT22;54904;54.350;18.664;2022-12-07T05:41:14;6.90;99.90
18321;DHT22;54904;54.350;18.664;2022-12-07T05:43:57;6.90;99.90
18321;DHT22;54904;54.350;18.664;2022-12-07T05:46:24;6.90;99.90
18321;DHT22;54904;54.350;18.664;2022-12-07T05:48:51;6.90;99.90
18321;DHT22;54904;54.350;18.664;2022-12-07T05:51:19;6.90;99.90
18321;DHT22;54904;54.350;18.664;2022-12-07T05:53:46;6.90;99.90
18321;DHT22;54904;54.350;18.664;2022-12-07T05:56:13;6.90;99.90
18321;DHT22;54904;54.350;18.664;2022-12-07T05:58:40;6.90;99.90
18321;DHT22;54904;54.350;18.664;2022-12-07T06:01:26;6.80;99.90
18321;DHT22;54904;54.350;18.664;2022-12-07T06:03:53;6.80;99.90
18321;DHT22;54904;54.350;18.664;2022-12-07T06:06:20;6.90;99.90
18321;DHT22;54904;54.350;18.664;2022-12-07T06:08:47;6.90;99.90
18321;DHT22;54904;54.350;18.664;2022-12-07T06:11:14;6.90;99.90
18321;DHT22;54904;54.350;18.664;2022-12-07T06:13:58;6.90;99.90
18321;DHT22;54904;54.350;18.664;2022-12-07T06:16:26;6.90;99.90
18321;DHT22;54904;54.350;18.664;2022-12-07T06:18:53;6.90;99.90
18321;DHT22;54904;54.350;18.664;2022-12-07T06:21:21;6.90;99.90
18321;DHT22;54904;54.350;18.664;2022-12-07T06:23:48;6.90;99.90
18321;DHT22;54904;54.350;18.664;2022-12-07T06:26:15;6.90;99.90
18321;DHT22;54904;54.350;18.664;2022-12-07T06:28:42;6.90;99.90
18321;DHT22;54904;54.350;18.664;2022-12-07T06:31:10;6.90;99.90
18321;DHT22;54904;54.350;18.664;2022-12-07T06:33:38;6.90;99.90
18321;DHT22;54904;54.350;18.664;2022-12-07T06:36:06;6.90;99.90
18321;DHT22;54904;54.350;18.664;2022-12-07T06:38:33;6.90;99.90
18321;DHT22;54904;54.350;18.664;2022-12-07T06:41:00;6.90;99.90
18321;DHT22;54904;54.350;18.664;2022-12-07T06:43:27;6.90;99.90
18321;DHT22;54904;54.350;18.664;2022-12-07T06:45:54;6.90;99.90
18321;DHT22;54904;54.350;18.664;2022-12-07T06:48:22;6.90;99.90
18321;DHT22;54904;54.350;18.664;2022-12-07T06:50:50;6.80;99.90
18321;DHT22;54904;54.350;18.664;2022-12-07T06:53:17;6.80;99.90
18321;DHT22;54904;54.350;18.664;2022-12-07T06:55:44;6.80;99.90
18321;DHT22;54904;54.350;18.664;2022-12-07T06:58:11;6.90;99.90
18321;DHT22;54904;54.350;18.664;2022-12-07T07:00:39;6.90;99.90
18321;DHT22;54904;54.350;18.664;2022-12-07T07:03:06;6.90;99.90
18321;DHT22;54904;54.350;18.664;2022-12-07T07:05:33;6.90;99.90
18321;DHT22;54904;54.350;18.664;2022-12-07T07:08:02;6.90;99.90
18321;DHT22;54904;54.350;18.664;2022-12-07T07:10:29;6.90;99.90
18321;DHT22;54904;54.350;18.664;2022-12-07T07:12:56;6.90;99.90
18321;DHT22;54904;54.350;18.664;2022-12-07T07:15:23;6.90;99.90
18321;DHT22;54904;54.350;18.664;2022-12-07T07:17:50;6.90;99.90
18321;DHT22;54904;54.350;18.664;2022-12-07T07:20:18;6.80;99.90
18321;DHT22;54904;54.350;18.664;2022-12-07T07:22:45;6.80;99.90
18321;DHT22;54904;54.350;18.664;2022-12-07T07:25:14;6.80;99.90
18321;DHT22;54904;54.350;18.664;2022-12-07T07:27:41;6.80;99.90
18321;DHT22;54904;54.350;18.664;2022-12-07T07:30:09;6.90;99.90
18321;DHT22;54904;54.350;18.664;2022-12-07T07:32:36;6.90;99.90
18321;DHT22;54904;54.350;18.664;2022-12-07T07:35:04;6.90;99.90
18321;DHT22;54904;54.350;18.664;2022-12-07T07:37:31;6.90;99.90
18321;DHT22;54904;54.350;18.664;2022-12-07T07:39:58;6.90;99.90
18321;DHT22;54904;54.350;18.664;2022-12-07T07:42:27;6.90;99.90
18321;DHT22;54904;54.350;18.664;2022-12-07T07:44:54;6.90;99.90
18321;DHT22;54904;54.350;18.664;2022-12-07T07:47:21;6.90;99.90
18321;DHT22;54904;54.350;18.664;2022-12-07T07:49:48;6.90;99.90
18321;DHT22;54904;54.350;18.664;2022-12-07T07:52:15;6.90;99.90
18321;DHT22;54904;54.350;18.664;2022-12-07T07:54:42;6.90;99.90
18321;DHT22;54904;54.350;18.664;2022-12-07T07:57:09;6.90;99.90
18321;DHT22;54904;54.350;18.664;2022-12-07T07:59:37;6.90;99.90
18321;DHT22;54904;54.350;18.664;2022-12-07T08:02:04;6.90;99.90
18321;DHT22;54904;54.350;18.664;2022-12-07T08:04:32;6.90;99.90
18321;DHT22;54904;54.350;18.664;2022-12-07T08:06:59;6.90;99.90
18321;DHT22;54904;54.350;18.664;2022-12-07T08:09:26;7.00;99.90
18321;DHT22;54904;54.350;18.664;2022-12-07T08:11:53;7.00;99.90
18321;DHT22;54904;54.350;18.664;2022-12-07T08:14:20;7.00;99.90
18321;DHT22;54904;54.350;18.664;2022-12-07T08:16:48;7.10;99.90
18321;DHT22;54904;54.350;18.664;2022-12-07T08:19:15;7.10;99.90
18321;DHT22;54904;54.350;18.664;2022-12-07T08:21:43;7.10;99.90
18321;DHT22;54904;54.350;18.664;2022-12-07T08:24:09;7.20;99.90
18321;DHT22;54904;54.350;18.664;2022-12-07T08:26:37;7.20;99.90
18321;DHT22;54904;54.350;18.664;2022-12-07T08:29:04;7.30;99.90
18321;DHT22;54904;54.350;18.664;2022-12-07T08:31:31;7.30;99.90
18321;DHT22;54904;54.350;18.664;2022-12-07T08:33:59;7.30;99.90
18321;DHT22;54904;54.350;18.664;2022-12-07T08:36:26;7.30;99.90
18321;DHT22;54904;54.350;18.664;2022-12-07T08:38:53;7.30;99.90
18321;DHT22;54904;54.350;18.664;2022-12-07T08:41:20;7.30;99.90
18321;DHT22;54904;54.350;18.664;2022-12-07T08:43:47;7.20;99.90
18321;DHT22;54904;54.350;18.664;2022-12-07T08:46:18;7.20;99.90
18321;DHT22;54904;54.350;18.664;2022-12-07T08:48:49;7.20;99.90
18321;DHT22;54904;54.350;18.664;2022-12-07T08:51:21;7.20;99.90
18321;DHT22;54904;54.350;18.664;2022-12-07T08:53:50;7.20;99.90
18321;DHT22;54904;54.350;18.664;2022-12-07T08:56:18;7.20;99.90
18321;DHT22;54904;54.350;18.664;2022-12-07T08:58:46;7.20;99.90
18321;DHT22;54904;54.350;18.664;2022-12-07T09:01:13;7.20;99.90
18321;DHT22;54904;54.350;18.664;2022-12-07T09:03:40;7.20;99.90
18321;DHT22;54904;54.350;18.664;2022-12-07T09:06:07;7.20;99.90
18321;DHT22;54904;54.350;18.664;2022-12-07T09:08:43;7.10;99.90
18321;DHT22;54904;54.350;18.664;2022-12-07T09:11:12;7.20;99.90
18321;DHT22;54904;54.350;18.664;2022-12-07T09:13:39;7.20;99.90
18321;DHT22;54904;54.350;18.664;2022-12-07T09:16:06;7.20;99.90
18321;DHT22;54904;54.350;18.664;2022-12-07T09:18:33;7.20;99.90
18321;DHT22;54904;54.350;18.664;2022-12-07T09:21:00;7.10;99.90
18321;DHT22;54904;54.350;18.664;2022-12-07T09:23:27;7.20;99.90
18321;DHT22;54904;54.350;18.664;2022-12-07T09:25:59;7.20;99.90
18321;DHT22;54904;54.350;18.664;2022-12-07T09:28:26;7.10;99.90
18321;DHT22;54904;54.350;18.664;2022-12-07T09:30:53;7.20;99.90
18321;DHT22;54904;54.350;18.664;2022-12-07T09:33:20;7.20;99.90
18321;DHT22;54904;54.350;18.664;2022-12-07T09:35:48;7.20;99.90
18321;DHT22;54904;54.350;18.664;2022-12-07T09:38:16;7.30;99.90
18321;DHT22;54904;54.350;18.664;2022-12-07T09:40:43;7.30;99.90
18321;DHT22;54904;54.350;18.664;2022-12-07T09:43:15;7.30;99.90
18321;DHT22;54904;54.350;18.664;2022-12-07T09:45:44;7.30;99.90
18321;DHT22;54904;54.350;18.664;2022-12-07T09:48:17;7.30;99.90
18321;DHT22;54904;54.350;18.664;2022-12-07T09:50:46;7.30;99.90
18321;DHT22;54904;54.350;18.664;2022-12-07T09:53:16;7.30;99.90
18321;DHT22;54904;54.350;18.664;2022-12-07T09:55:46;7.20;99.90
18321;DHT22;54904;54.350;18.664;2022-12-07T09:58:19;7.20;99.90
18321;DHT22;54904;54.350;18.664;2022-12-07T10:00:47;7.20;99.90
18321;DHT22;54904;54.350;18.664;2022-12-07T10:03:15;7.20;99.90
18321;DHT22;54904;54.350;18.664;2022-12-07T10:05:44;7.20;99.90
18321;DHT22;54904;54.350;18.664;2022-12-07T10:08:13;7.20;99.90
18321;DHT22;54904;54.350;18.664;2022-12-07T10:10:41;7.20;99.90
18321;DHT22;54904;54.350;18.664;2022-12-07T10:13:10;7.20;99.90
18321;DHT22;54904;54.350;18.664;2022-12-07T10:15:50;7.10;99.90
18321;DHT22;54904;54.350;18.664;2022-12-07T10:18:36;7.10;99.90
18321;DHT22;54904;54.350;18.664;2022-12-07T10:21:15;7.10;99.90
18321;DHT22;54904;54.350;18.664;2022-12-07T10:23:59;7.10;99.90
18321;DHT22;54904;54.350;18.664;2022-12-07T10:26:30;7.10;99.90
18321;DHT22;54904;54.350;18.664;2022-12-07T10:28:59;7.10;99.90
18321;DHT22;54904;54.350;18.664;2022-12-07T10:31:28;7.10;99.90
18321;DHT22;54904;54.350;18.664;2022-12-07T10:33:57;7.00;99.90
18321;DHT22;54904;54.350;18.664;2022-12-07T10:36:26;7.00;99.90
18321;DHT22;54904;54.350;18.664;2022-12-07T10:38:59;7.00;99.90
18321;DHT22;54904;54.350;18.664;2022-12-07T10:41:27;7.00;99.90
18321;DHT22;54904;54.350;18.664;2022-12-07T10:43:55;7.00;99.90
18321;DHT22;54904;54.350;18.664;2022-12-07T10:47:02;7.00;99.90
18321;DHT22;54904;54.350;18.664;2022-12-07T10:50:14;7.00;99.90
18321;DHT22;54904;54.350;18.664;2022-12-07T10:53:11;7.00;99.90
18321;DHT22;54904;54.350;18.664;2022-12-07T10:55:50;7.00;99.90
18321;DHT22;54904;54.350;18.664;2022-12-07T10:58:48;7.00;99.90
18321;DHT22;54904;54.350;18.664;2022-12-07T11:01:23;7.00;99.90
18321;DHT22;54904;54.350;18.664;2022-12-07T11:04:14;7.10;99.90
18321;DHT22;54904;54.350;18.664;2022-12-07T11:06:48;7.00;99.90
18321;DHT22;54904;54.350;18.664;2022-12-07T11:09:55;7.00;99.90
18321;DHT22;54904;54.350;18.664;2022-12-07T11:12:34;7.00;99.90
18321;DHT22;54904;54.350;18.664;2022-12-07T11:15:12;7.00;99.90
18321;DHT22;54904;54.350;18.664;2022-12-07T11:17:48;7.00;99.90
18321;DHT22;54904;54.350;18.664;2022-12-07T11:20:29;7.00;99.90
18321;DHT22;54904;54.350;18.664;2022-12-07T11:23:09;7.10;99.90
18321;DHT22;54904;54.350;18.664;2022-12-07T11:25:46;7.00;99.90
18321;DHT22;54904;54.350;18.664;2022-12-07T11:28:25;7.00;99.90
18321;DHT22;54904;54.350;18.664;2022-12-07T11:31:00;7.00;99.90
18321;DHT22;54904;54.350;18.664;2022-12-07T11:33:37;6.90;99.90
18321;DHT22;54904;54.350;18.664;2022-12-07T11:36:24;7.00;99.90
18321;DHT22;54904;54.350;18.664;2022-12-07T11:39:00;6.90;99.90
18321;DHT22;54904;54.350;18.664;2022-12-07T11:41:29;7.00;99.90
18321;DHT22;54904;54.350;18.664;2022-12-07T11:44:01;7.00;99.90
18321;DHT22;54904;54.350;18.664;2022-12-07T11:46:44;7.00;99.90
18321;DHT22;54904;54.350;18.664;2022-12-07T11:49:16;6.90;99.90
18321;DHT22;54904;54.350;18.664;2022-12-07T11:51:48;7.10;99.90
18321;DHT22;54904;54.350;18.664;2022-12-07T11:54:18;7.00;99.90
18321;DHT22;54904;54.350;18.664;2022-12-07T11:56:48;7.00;99.90
18321;DHT22;54904;54.350;18.664;2022-12-07T11:59:22;7.00;99.90
18321;DHT22;54904;54.350;18.664;2022-12-07T12:01:53;7.00;99.90
18321;DHT22;54904;54.350;18.664;2022-12-07T12:04:32;7.00;99.90
18321;DHT22;54904;54.350;18.664;2022-12-07T12:07:03;6.90;99.90
18321;DHT22;54904;54.350;18.664;2022-12-07T12:09:35;6.90;99.90
18321;DHT22;54904;54.350;18.664;2022-12-07T12:12:35;6.90;99.90
18321;DHT22;54904;54.350;18.664;2022-12-07T12:15:19;6.90;99.90
18321;DHT22;54904;54.350;18.664;2022-12-07T12:20:45;6.90;99.90
18321;DHT22;54904;54.350;18.664;2022-12-07T12:23:17;6.90;99.90
18321;DHT22;54904;54.350;18.664;2022-12-07T12:25:48;6.90;99.90
18321;DHT22;54904;54.350;18.664;2022-12-07T12:28:25;6.90;99.90
18321;DHT22;54904;54.350;18.664;2022-12-07T12:31:15;6.90;99.90
18321;DHT22;54904;54.350;18.664;2022-12-07T12:33:44;6.90;99.90
18321;DHT22;54904;54.350;18.664;2022-12-07T12:36:23;6.90;99.90
18321;DHT22;54904;54.350;18.664;2022-12-07T12:39:08;6.90;99.90
18321;DHT22;54904;54.350;18.664;2022-12-07T12:41:54;6.90;99.90
18321;DHT22;54904;54.350;18.664;2022-12-07T12:44:41;6.90;99.90
18321;DHT22;54904;54.350;18.664;2022-12-07T12:47:42;6.90;99.90
18321;DHT22;54904;54.350;18.664;2022-12-07T12:50:17;6.90;99.90
18321;DHT22;54904;54.350;18.664;2022-12-07T12:52:55;6.90;99.90
18321;DHT22;54904;54.350;18.664;2022-12-07T12:58:32;6.90;99.90
18321;DHT22;54904;54.350;18.664;2022-12-07T13:04:25;6.80;99.90
18321;DHT22;54904;54.350;18.664;2022-12-07T13:06:53;6.80;99.90
18321;DHT22;54904;54.350;18.664;2022-12-07T13:09:23;6.80;99.90
18321;DHT22;54904;54.350;18.664;2022-12-07T13:12:00;6.70;99.90
18321;DHT22;54904;54.350;18.664;2022-12-07T13:14:54;6.80;99.90
18321;DHT22;54904;54.350;18.664;2022-12-07T13:17:58;6.80;99.90
18321;DHT22;54904;54.350;18.664;2022-12-07T13:20:52;6.70;99.90
18321;DHT22;54904;54.350;18.664;2022-12-07T13:23:24;6.80;99.90
18321;DHT22;54904;54.350;18.664;2022-12-07T13:25:55;6.80;99.90
18321;DHT22;54904;54.350;18.664;2022-12-07T13:28:31;6.80;99.90
18321;DHT22;54904;54.350;18.664;2022-12-07T13:31:08;6.80;99.90
18321;DHT22;54904;54.350;18.664;2022-12-07T13:33:38;6.80;99.90
18321;DHT22;54904;54.350;18.664;2022-12-07T13:36:16;6.80;99.90
18321;DHT22;54904;54.350;18.664;2022-12-07T13:38:53;6.90;99.90
18321;DHT22;54904;54.350;18.664;2022-12-07T13:41:21;6.90;99.90
18321;DHT22;54904;54.350;18.664;2022-12-07T13:43:54;6.90;99.90
18321;DHT22;54904;54.350;18.664;2022-12-07T13:46:35;6.90;99.90
18321;DHT22;54904;54.350;18.664;2022-12-07T13:49:16;6.90;99.90
18321;DHT22;54904;54.350;18.664;2022-12-07T13:51:43;6.90;99.90
18321;DHT22;54904;54.350;18.664;2022-12-07T13:54:12;6.90;99.90
18321;DHT22;54904;54.350;18.664;2022-12-07T13:56:40;6.80;99.90
18321;DHT22;54904;54.350;18.664;2022-12-07T13:59:13;6.80;99.90
18321;DHT22;54904;54.350;18.664;2022-12-07T14:01:42;6.80;99.90
18321;DHT22;54904;54.350;18.664;2022-12-07T14:04:34;6.80;99.90
18321;DHT22;54904;54.350;18.664;2022-12-07T14:07:18;6.80;99.90
18321;DHT22;54904;54.350;18.664;2022-12-07T14:09:54;6.80;99.90
18321;DHT22;54904;54.350;18.664;2022-12-07T14:12:22;6.80;99.90
18321;DHT22;54904;54.350;18.664;2022-12-07T14:14:50;6.80;99.90
18321;DHT22;54904;54.350;18.664;2022-12-07T14:17:20;6.80;99.90
18321;DHT22;54904;54.350;18.664;2022-12-07T14:19:50;6.80;99.90
18321;DHT22;54904;54.350;18.664;2022-12-07T14:22:23;7.60;99.90
18321;DHT22;54904;54.350;18.664;2022-12-07T14:25:18;6.90;99.90
18321;DHT22;54904;54.350;18.664;2022-12-07T14:27:54;6.90;99.90
18321;DHT22;54904;54.350;18.664;2022-12-07T14:30:25;6.80;99.90
18321;DHT22;54904;54.350;18.664;2022-12-07T14:32:56;6.90;99.90
18321;DHT22;54904;54.350;18.664;2022-12-07T14:35:25;6.80;99.90
18321;DHT22;54904;54.350;18.664;2022-12-07T14:37:52;6.80;99.90
18321;DHT22;54904;54.350;18.664;2022-12-07T14:40:24;6.80;99.90
18321;DHT22;54904;54.350;18.664;2022-12-07T14:42:55;6.80;99.90
18321;DHT22;54904;54.350;18.664;2022-12-07T14:45:24;6.90;99.90
18321;DHT22;54904;54.350;18.664;2022-12-07T14:47:51;6.90;99.90
18321;DHT22;54904;54.350;18.664;2022-12-07T14:50:20;6.80;99.90
18321;DHT22;54904;54.350;18.664;2022-12-07T14:52:50;6.80;99.90
18321;DHT22;54904;54.350;18.664;2022-12-07T14:55:23;6.80;99.90
18321;DHT22;54904;54.350;18.664;2022-12-07T14:57:50;6.80;99.90
18321;DHT22;54904;54.350;18.664;2022-12-07T15:00:19;6.80;99.90
18321;DHT22;54904;54.350;18.664;2022-12-07T15:02:47;6.80;99.90
18321;DHT22;54904;54.350;18.664;2022-12-07T15:05:19;6.80;99.90
18321;DHT22;54904;54.350;18.664;2022-12-07T15:07:46;6.80;99.90
18321;DHT22;54904;54.350;18.664;2022-12-07T15:10:16;6.80;99.90
18321;DHT22;54904;54.350;18.664;2022-12-07T15:12:45;6.80;99.90
18321;DHT22;54904;54.350;18.664;2022-12-07T15:15:12;6.80;99.90
18321;DHT22;54904;54.350;18.664;2022-12-07T15:17:39;6.80;99.90
18321;DHT22;54904;54.350;18.664;2022-12-07T15:20:09;6.80;99.90
18321;DHT22;54904;54.350;18.664;2022-12-07T15:22:39;6.80;99.90
18321;DHT22;54904;54.350;18.664;2022-12-07T15:25:06;6.80;99.90
18321;DHT22;54904;54.350;18.664;2022-12-07T15:27:34;6.80;99.90
18321;DHT22;54904;54.350;18.664;2022-12-07T15:30:01;6.70;99.90
18321;DHT22;54904;54.350;18.664;2022-12-07T15:32:28;5.70;99.90
18321;DHT22;54904;54.350;18.664;2022-12-07T15:34:55;6.80;99.90
18321;DHT22;54904;54.350;18.664;2022-12-07T15:37:22;6.80;99.90
18321;DHT22;54904;54.350;18.664;2022-12-07T15:39:51;6.80;99.90
18321;DHT22;54904;54.350;18.664;2022-12-07T15:42:18;6.80;99.90
18321;DHT22;54904;54.350;18.664;2022-12-07T15:44:45;6.80;99.90
18321;DHT22;54904;54.350;18.664;2022-12-07T15:47:29;6.80;99.90
18321;DHT22;54904;54.350;18.664;2022-12-07T15:49:56;6.70;99.90
18321;DHT22;54904;54.350;18.664;2022-12-07T15:52:23;6.70;99.90
18321;DHT22;54904;54.350;18.664;2022-12-07T15:54:52;6.70;99.90
18321;DHT22;54904;54.350;18.664;2022-12-07T15:57:19;6.70;99.90
18321;DHT22;54904;54.350;18.664;2022-12-07T15:59:46;6.70;99.90
18321;DHT22;54904;54.350;18.664;2022-12-07T16:02:13;6.70;99.90
18321;DHT22;54904;54.350;18.664;2022-12-07T16:04:41;6.60;99.90
18321;DHT22;54904;54.350;18.664;2022-12-07T16:07:08;6.70;99.90